sensor_id;sensor_type;location;lat;lon;timestamp;temperature;humidity
76139;DHT22;65138;50.946;7.074;2022-12-07T00:01:29;15.70;56.80
76139;DHT22;65138;50.946;7.074;2022-12-07T00:03:57;15.70;56.70
76139;DHT22;65138;50.946;7.074;2022-12-07T00:06:29;15.70;56.80
76139;DHT22;65138;50.946;7.074;2022-12-07T00:08:54;15.70;56.80
76139;DHT22;65138;50.946;7.074;2022-12-07T00:11:21;15.70;56.80
76139;DHT22;65138;50.946;7.074;2022-12-07T00:13:54;15.70;56.90
76139;DHT22;65138;50.946;7.074;2022-12-07T00:16:21;15.70;56.90
76139;DHT22;65138;50.946;7.074;2022-12-07T00:18:48;15.70;56.90
76139;DHT22;65138;50.946;7.074;2022-12-07T00:21:19;15.70;56.90
76139;DHT22;65138;50.946;7.074;2022-12-07T00:23:47;15.70;56.90
76139;DHT22;65138;50.946;7.074;2022-12-07T00:26:22;15.70;57.00
76139;DHT22;65138;50.946;7.074;2022-12-07T00:28:51;15.60;57.00
76139;DHT22;65138;50.946;7.074;2022-12-07T00:31:20;15.70;57.10
76139;DHT22;65138;50.946;7.074;2022-12-07T00:33:47;15.60;57.10
76139;DHT22;65138;50.946;7.074;2022-12-07T00:36:15;15.60;57.10
76139;DHT22;65138;50.946;7.074;2022-12-07T00:38:42;15.60;57.10
76139;DHT22;65138;50.946;7.074;2022-12-07T00:41:13;15.60;57.10
76139;DHT22;65138;50.946;7.074;2022-12-07T00:43:40;15.60;57.20
76139;DHT22;65138;50.946;7.074;2022-12-07T00:46:07;15.60;57.10
76139;DHT22;65138;50.946;7.074;2022-12-07T00:48:33;15.60;57.10
76139;DHT22;65138;50.946;7.074;2022-12-07T00:50:59;15.60;57.20
76139;DHT22;65138;50.946;7.074;2022-12-07T00:53:25;15.50;57.20
76139;DHT22;65138;50.946;7.074;2022-12-07T00:55:50;15.50;57.30
76139;DHT22;65138;50.946;7.074;2022-12-07T00:58:18;15.50;57.20
76139;DHT22;65138;50.946;7.074;2022-12-07T01:00:43;15.50;57.30
76139;DHT22;65138;50.946;7.074;2022-12-07T01:03:12;15.60;57.20
76139;DHT22;65138;50.946;7.074;2022-12-07T01:05:38;15.60;57.30
76139;DHT22;65138;50.946;7.074;2022-12-07T01:08:04;15.60;57.30
76139;DHT22;65138;50.946;7.074;2022-12-07T01:10:30;15.50;57.30
76139;DHT22;65138;50.946;7.074;2022-12-07T01:12:57;15.50;57.30
76139;DHT22;65138;50.946;7.074;2022-12-07T01:15:23;15.50;57.30
76139;DHT22;65138;50.946;7.074;2022-12-07T01:17:49;15.50;57.30
76139;DHT22;65138;50.946;7.074;2022-12-07T01:20:15;15.50;57.30
76139;DHT22;65138;50.946;7.074;2022-12-07T01:22:42;15.50;57.30
76139;DHT22;65138;50.946;7.074;2022-12-07T01:25:10;15.50;57.30
76139;DHT22;65138;50.946;7.074;2022-12-07T01:27:36;15.50;57.30
76139;DHT22;65138;50.946;7.074;2022-12-07T01:30:06;15.50;57.30
76139;DHT22;65138;50.946;7.074;2022-12-07T01:32:32;15.50;57.40
76139;DHT22;65138;50.946;7.074;2022-12-07T01:34:57;15.50;57.40
76139;DHT22;65138;50.946;7.074;2022-12-07T01:37:24;15.50;57.40
76139;DHT22;65138;50.946;7.074;2022-12-07T01:39:51;15.50;57.40
76139;DHT22;65138;50.946;7.074;2022-12-07T01:42:17;15.50;57.40
76139;DHT22;65138;50.946;7.074;2022-12-07T01:47:50;15.40;57.50
76139;DHT22;65138;50.946;7.074;2022-12-07T01:50:17;15.50;57.50
76139;DHT22;65138;50.946;7.074;2022-12-07T01:52:44;15.50;57.50
76139;DHT22;65138;50.946;7.074;2022-12-07T01:55:13;15.50;57.50
76139;DHT22;65138;50.946;7.074;2022-12-07T01:57:42;15.50;57.50
76139;DHT22;65138;50.946;7.074;2022-12-07T02:00:09;15.50;57.50
76139;DHT22;65138;50.946;7.074;2022-12-07T02:02:51;15.40;57.50
76139;DHT22;65138;50.946;7.074;2022-12-07T02:05:18;15.50;57.50
76139;DHT22;65138;50.946;7.074;2022-12-07T02:07:45;15.40;57.50
76139;DHT22;65138;50.946;7.074;2022-12-07T02:10:28;15.40;57.50
76139;DHT22;65138;50.946;7.074;2022-12-07T02:13:04;15.40;57.60
76139;DHT22;65138;50.946;7.074;2022-12-07T02:29:10;15.40;57.80
76139;DHT22;65138;50.946;7.074;2022-12-07T02:31:39;15.40;58.30
76139;DHT22;65138;50.946;7.074;2022-12-07T02:34:18;15.40;57.80
76139;DHT22;65138;50.946;7.074;2022-12-07T02:36:52;15.30;57.70
76139;DHT22;65138;50.946;7.074;2022-12-07T02:39:47;15.30;57.80
76139;DHT22;65138;50.946;7.074;2022-12-07T02:42:18;15.40;57.80
76139;DHT22;65138;50.946;7.074;2022-12-07T02:44:46;15.40;57.80
76139;DHT22;65138;50.946;7.074;2022-12-07T02:47:15;15.30;57.80
76139;DHT22;65138;50.946;7.074;2022-12-07T02:49:42;15.40;57.80
76139;DHT22;65138;50.946;7.074;2022-12-07T02:52:08;15.40;57.80
76139;DHT22;65138;50.946;7.074;2022-12-07T02:54:34;15.40;57.80
76139;DHT22;65138;50.946;7.074;2022-12-07T03:00:09;15.30;57.90
76139;DHT22;65138;50.946;7.074;2022-12-07T03:02:52;15.30;57.80
76139;DHT22;65138;50.946;7.074;2022-12-07T03:08:58;15.30;57.80
76139;DHT22;65138;50.946;7.074;2022-12-07T03:11:50;15.30;57.80
76139;DHT22;65138;50.946;7.074;2022-12-07T03:14:22;15.30;57.90
76139;DHT22;65138;50.946;7.074;2022-12-07T03:17:31;15.30;57.90
76139;DHT22;65138;50.946;7.074;2022-12-07T03:19:51;15.30;57.90
76139;DHT22;65138;50.946;7.074;2022-12-07T03:22:19;15.30;57.90
76139;DHT22;65138;50.946;7.074;2022-12-07T03:24:51;15.30;58.00
76139;DHT22;65138;50.946;7.074;2022-12-07T03:27:25;15.30;58.00
76139;DHT22;65138;50.946;7.074;2022-12-07T03:30:17;15.30;58.00
76139;DHT22;65138;50.946;7.074;2022-12-07T03:32:48;15.30;58.10
76139;DHT22;65138;50.946;7.074;2022-12-07T03:35:33;15.30;58.00
76139;DHT22;65138;50.946;7.074;2022-12-07T03:38:15;15.30;58.40
76139;DHT22;65138;50.946;7.074;2022-12-07T03:40:56;15.20;58.10
76139;DHT22;65138;50.946;7.074;2022-12-07T03:43:24;15.30;58.10
76139;DHT22;65138;50.946;7.074;2022-12-07T03:46:06;15.20;58.10
76139;DHT22;65138;50.946;7.074;2022-12-07T03:49:04;15.30;58.10
76139;DHT22;65138;50.946;7.074;2022-12-07T03:51:50;15.30;58.00
76139;DHT22;65138;50.946;7.074;2022-12-07T03:54:28;15.30;58.10
76139;DHT22;65138;50.946;7.074;2022-12-07T03:56:58;15.30;58.10
76139;DHT22;65138;50.946;7.074;2022-12-07T03:59:26;15.30;58.10
76139;DHT22;65138;50.946;7.074;2022-12-07T04:01:55;15.30;58.10
76139;DHT22;65138;50.946;7.074;2022-12-07T04:04:22;15.20;58.10
76139;DHT22;65138;50.946;7.074;2022-12-07T04:06:47;15.30;58.10
76139;DHT22;65138;50.946;7.074;2022-12-07T04:09:13;15.30;58.20
76139;DHT22;65138;50.946;7.074;2022-12-07T04:11:40;15.20;58.10
76139;DHT22;65138;50.946;7.074;2022-12-07T04:14:05;15.20;58.10
76139;DHT22;65138;50.946;7.074;2022-12-07T04:16:52;15.20;58.70
76139;DHT22;65138;50.946;7.074;2022-12-07T04:19:21;15.20;58.20
76139;DHT22;65138;50.946;7.074;2022-12-07T04:21:47;15.20;58.20
76139;DHT22;65138;50.946;7.074;2022-12-07T04:24:13;15.20;58.10
76139;DHT22;65138;50.946;7.074;2022-12-07T04:26:40;15.20;58.20
76139;DHT22;65138;50.946;7.074;2022-12-07T04:29:06;15.20;58.90
76139;DHT22;65138;50.946;7.074;2022-12-07T04:31:32;15.20;58.20
76139;DHT22;65138;50.946;7.074;2022-12-07T04:33:58;15.20;58.20
76139;DHT22;65138;50.946;7.074;2022-12-07T04:36:24;15.20;58.20
76139;DHT22;65138;50.946;7.074;2022-12-07T04:38:49;15.20;58.20
76139;DHT22;65138;50.946;7.074;2022-12-07T04:41:15;15.20;58.30
76139;DHT22;65138;50.946;7.074;2022-12-07T04:43:40;15.20;58.20
76139;DHT22;65138;50.946;7.074;2022-12-07T04:46:06;15.20;58.20
76139;DHT22;65138;50.946;7.074;2022-12-07T04:48:32;15.20;58.20
76139;DHT22;65138;50.946;7.074;2022-12-07T04:50:58;15.20;58.20
76139;DHT22;65138;50.946;7.074;2022-12-07T04:53:23;15.20;58.30
76139;DHT22;65138;50.946;7.074;2022-12-07T04:55:49;15.20;58.30
76139;DHT22;65138;50.946;7.074;2022-12-07T04:58:15;15.20;58.30
76139;DHT22;65138;50.946;7.074;2022-12-07T05:00:41;15.20;58.30
76139;DHT22;65138;50.946;7.074;2022-12-07T05:03:07;15.20;58.40
76139;DHT22;65138;50.946;7.074;2022-12-07T05:05:33;15.20;58.30
76139;DHT22;65138;50.946;7.074;2022-12-07T05:07:58;15.20;58.30
76139;DHT22;65138;50.946;7.074;2022-12-07T05:10:24;15.20;58.40
76139;DHT22;65138;50.946;7.074;2022-12-07T05:12:49;15.20;58.40
76139;DHT22;65138;50.946;7.074;2022-12-07T05:15:15;15.20;58.40
76139;DHT22;65138;50.946;7.074;2022-12-07T05:17:41;15.20;59.10
76139;DHT22;65138;50.946;7.074;2022-12-07T05:20:08;15.20;58.50
76139;DHT22;65138;50.946;7.074;2022-12-07T05:22:34;15.20;58.50
76139;DHT22;65138;50.946;7.074;2022-12-07T05:25:00;15.20;58.40
76139;DHT22;65138;50.946;7.074;2022-12-07T05:27:26;15.20;58.40
76139;DHT22;65138;50.946;7.074;2022-12-07T05:29:51;15.20;58.30
76139;DHT22;65138;50.946;7.074;2022-12-07T05:32:18;15.20;58.40
76139;DHT22;65138;50.946;7.074;2022-12-07T05:34:43;15.30;58.50
76139;DHT22;65138;50.946;7.074;2022-12-07T05:37:09;15.30;58.40
76139;DHT22;65138;50.946;7.074;2022-12-07T05:39:35;15.30;58.40
76139;DHT22;65138;50.946;7.074;2022-12-07T05:42:01;15.30;58.30
76139;DHT22;65138;50.946;7.074;2022-12-07T05:44:44;15.40;58.40
76139;DHT22;65138;50.946;7.074;2022-12-07T05:47:11;15.40;58.40
76139;DHT22;65138;50.946;7.074;2022-12-07T05:49:37;15.40;58.40
76139;DHT22;65138;50.946;7.074;2022-12-07T05:52:04;15.40;58.20
76139;DHT22;65138;50.946;7.074;2022-12-07T05:54:29;15.40;58.10
76139;DHT22;65138;50.946;7.074;2022-12-07T05:56:55;15.40;58.10
76139;DHT22;65138;50.946;7.074;2022-12-07T05:59:21;15.40;58.10
76139;DHT22;65138;50.946;7.074;2022-12-07T06:01:59;15.40;58.10
76139;DHT22;65138;50.946;7.074;2022-12-07T06:04:27;15.40;58.10
76139;DHT22;65138;50.946;7.074;2022-12-07T06:06:53;15.40;58.20
76139;DHT22;65138;50.946;7.074;2022-12-07T06:09:20;15.40;58.20
76139;DHT22;65138;50.946;7.074;2022-12-07T06:11:46;15.40;58.10
76139;DHT22;65138;50.946;7.074;2022-12-07T06:14:31;15.40;58.20
76139;DHT22;65138;50.946;7.074;2022-12-07T06:16:58;15.50;58.10
76139;DHT22;65138;50.946;7.074;2022-12-07T06:19:23;15.50;58.10
76139;DHT22;65138;50.946;7.074;2022-12-07T06:21:49;15.50;58.10
76139;DHT22;65138;50.946;7.074;2022-12-07T06:24:16;15.50;58.10
76139;DHT22;65138;50.946;7.074;2022-12-07T06:26:42;15.50;58.10
76139;DHT22;65138;50.946;7.074;2022-12-07T06:29:09;15.50;58.10
76139;DHT22;65138;50.946;7.074;2022-12-07T06:31:35;15.50;58.20
76139;DHT22;65138;50.946;7.074;2022-12-07T06:34:04;15.50;58.10
76139;DHT22;65138;50.946;7.074;2022-12-07T06:36:30;15.50;58.20
76139;DHT22;65138;50.946;7.074;2022-12-07T06:38:59;15.50;58.20
76139;DHT22;65138;50.946;7.074;2022-12-07T06:41:24;15.50;58.20
76139;DHT22;65138;50.946;7.074;2022-12-07T06:43:50;15.50;58.20
76139;DHT22;65138;50.946;7.074;2022-12-07T06:46:17;15.50;58.10
76139;DHT22;65138;50.946;7.074;2022-12-07T06:48:43;15.50;58.10
76139;DHT22;65138;50.946;7.074;2022-12-07T06:51:10;15.50;58.20
76139;DHT22;65138;50.946;7.074;2022-12-07T06:53:36;15.60;58.10
76139;DHT22;65138;50.946;7.074;2022-12-07T06:56:02;15.50;58.10
76139;DHT22;65138;50.946;7.074;2022-12-07T06:58:29;15.50;58.10
76139;DHT22;65138;50.946;7.074;2022-12-07T07:00:56;15.50;58.10
76139;DHT22;65138;50.946;7.074;2022-12-07T07:03:22;15.50;58.20
76139;DHT22;65138;50.946;7.074;2022-12-07T07:05:51;15.50;58.30
76139;DHT22;65138;50.946;7.074;2022-12-07T07:08:17;15.50;58.20
76139;DHT22;65138;50.946;7.074;2022-12-07T07:10:43;15.50;58.20
76139;DHT22;65138;50.946;7.074;2022-12-07T07:13:09;15.50;58.20
76139;DHT22;65138;50.946;7.074;2022-12-07T07:15:34;15.50;58.00
76139;DHT22;65138;50.946;7.074;2022-12-07T07:18:02;15.50;58.00
76139;DHT22;65138;50.946;7.074;2022-12-07T07:20:30;15.50;58.10
76139;DHT22;65138;50.946;7.074;2022-12-07T07:22:56;15.50;58.20
76139;DHT22;65138;50.946;7.074;2022-12-07T07:25:22;15.60;58.30
76139;DHT22;65138;50.946;7.074;2022-12-07T07:27:48;15.60;58.40
76139;DHT22;65138;50.946;7.074;2022-12-07T07:30:13;15.50;58.50
76139;DHT22;65138;50.946;7.074;2022-12-07T07:32:39;15.50;58.70
76139;DHT22;65138;50.946;7.074;2022-12-07T07:35:05;15.50;59.80
76139;DHT22;65138;50.946;7.074;2022-12-07T07:37:31;15.60;59.60
76139;DHT22;65138;50.946;7.074;2022-12-07T07:39:57;15.60;60.10
76139;DHT22;65138;50.946;7.074;2022-12-07T07:42:23;15.70;62.50
76139;DHT22;65138;50.946;7.074;2022-12-07T07:44:48;15.70;62.10
76139;DHT22;65138;50.946;7.074;2022-12-07T07:47:17;15.70;61.00
76139;DHT22;65138;50.946;7.074;2022-12-07T07:49:43;15.80;61.20
76139;DHT22;65138;50.946;7.074;2022-12-07T07:52:09;15.80;60.70
76139;DHT22;65138;50.946;7.074;2022-12-07T07:54:37;15.80;60.80
76139;DHT22;65138;50.946;7.074;2022-12-07T07:57:03;15.90;60.10
76139;DHT22;65138;50.946;7.074;2022-12-07T07:59:28;15.90;59.60
76139;DHT22;65138;50.946;7.074;2022-12-07T08:01:54;15.90;59.80
76139;DHT22;65138;50.946;7.074;2022-12-07T08:04:21;15.90;59.40
76139;DHT22;65138;50.946;7.074;2022-12-07T08:06:48;15.90;59.30
76139;DHT22;65138;50.946;7.074;2022-12-07T08:09:13;15.90;59.20
76139;DHT22;65138;50.946;7.074;2022-12-07T08:11:40;16.00;59.20
76139;DHT22;65138;50.946;7.074;2022-12-07T08:14:07;16.00;59.20
76139;DHT22;65138;50.946;7.074;2022-12-07T08:16:35;16.00;59.20
76139;DHT22;65138;50.946;7.074;2022-12-07T08:19:01;16.00;59.40
76139;DHT22;65138;50.946;7.074;2022-12-07T08:21:26;16.00;59.40
76139;DHT22;65138;50.946;7.074;2022-12-07T08:23:52;16.00;59.40
76139;DHT22;65138;50.946;7.074;2022-12-07T08:26:18;16.00;59.30
76139;DHT22;65138;50.946;7.074;2022-12-07T08:28:44;16.00;59.30
76139;DHT22;65138;50.946;7.074;2022-12-07T08:31:13;16.00;59.30
76139;DHT22;65138;50.946;7.074;2022-12-07T08:33:39;16.00;59.40
76139;DHT22;65138;50.946;7.074;2022-12-07T08:36:08;16.00;59.30
76139;DHT22;65138;50.946;7.074;2022-12-07T08:38:35;16.00;59.20
76139;DHT22;65138;50.946;7.074;2022-12-07T08:41:02;16.00;59.10
76139;DHT22;65138;50.946;7.074;2022-12-07T08:43:27;16.00;59.00
76139;DHT22;65138;50.946;7.074;2022-12-07T08:46:20;16.10;59.00
76139;DHT22;65138;50.946;7.074;2022-12-07T08:48:52;16.10;58.90
76139;DHT22;65138;50.946;7.074;2022-12-07T08:51:21;16.10;58.90
76139;DHT22;65138;50.946;7.074;2022-12-07T08:53:48;16.20;59.10
76139;DHT22;65138;50.946;7.074;2022-12-07T08:56:15;16.20;59.30
76139;DHT22;65138;50.946;7.074;2022-12-07T08:58:41;16.30;59.30
76139;DHT22;65138;50.946;7.074;2022-12-07T09:01:07;16.30;59.50
76139;DHT22;65138;50.946;7.074;2022-12-07T09:03:33;16.30;59.30
76139;DHT22;65138;50.946;7.074;2022-12-07T09:05:59;16.40;59.20
76139;DHT22;65138;50.946;7.074;2022-12-07T09:08:29;16.30;59.10
76139;DHT22;65138;50.946;7.074;2022-12-07T09:10:57;16.30;59.30
76139;DHT22;65138;50.946;7.074;2022-12-07T09:13:23;16.40;59.40
76139;DHT22;65138;50.946;7.074;2022-12-07T09:15:48;16.40;59.30
76139;DHT22;65138;50.946;7.074;2022-12-07T09:18:14;16.40;59.20
76139;DHT22;65138;50.946;7.074;2022-12-07T09:20:40;16.40;58.90
76139;DHT22;65138;50.946;7.074;2022-12-07T09:23:06;16.40;58.80
76139;DHT22;65138;50.946;7.074;2022-12-07T09:25:33;16.50;59.20
76139;DHT22;65138;50.946;7.074;2022-12-07T09:27:59;16.60;58.90
76139;DHT22;65138;50.946;7.074;2022-12-07T09:30:26;16.60;58.50
76139;DHT22;65138;50.946;7.074;2022-12-07T09:32:58;16.60;58.90
76139;DHT22;65138;50.946;7.074;2022-12-07T09:35:25;16.50;59.10
76139;DHT22;65138;50.946;7.074;2022-12-07T09:37:51;16.50;59.40
76139;DHT22;65138;50.946;7.074;2022-12-07T09:40:18;16.50;59.60
76139;DHT22;65138;50.946;7.074;2022-12-07T09:42:48;16.40;59.60
76139;DHT22;65138;50.946;7.074;2022-12-07T09:45:31;16.40;59.70
76139;DHT22;65138;50.946;7.074;2022-12-07T09:47:58;16.40;59.60
76139;DHT22;65138;50.946;7.074;2022-12-07T09:50:27;16.40;59.60
76139;DHT22;65138;50.946;7.074;2022-12-07T09:52:55;16.50;59.50
76139;DHT22;65138;50.946;7.074;2022-12-07T09:55:28;16.50;59.40
76139;DHT22;65138;50.946;7.074;2022-12-07T09:57:55;16.60;58.90
76139;DHT22;65138;50.946;7.074;2022-12-07T10:00:22;16.60;58.60
76139;DHT22;65138;50.946;7.074;2022-12-07T10:03:00;16.70;58.30
76139;DHT22;65138;50.946;7.074;2022-12-07T10:05:32;16.70;58.00
76139;DHT22;65138;50.946;7.074;2022-12-07T10:08:00;16.80;57.80
76139;DHT22;65138;50.946;7.074;2022-12-07T10:10:30;16.80;58.20
76139;DHT22;65138;50.946;7.074;2022-12-07T10:13:02;16.80;57.50
76139;DHT22;65138;50.946;7.074;2022-12-07T10:18:44;16.80;57.40
76139;DHT22;65138;50.946;7.074;2022-12-07T10:21:15;16.80;58.00
76139;DHT22;65138;50.946;7.074;2022-12-07T10:26:34;16.70;57.80
76139;DHT22;65138;50.946;7.074;2022-12-07T10:31:52;16.60;57.80
76139;DHT22;65138;50.946;7.074;2022-12-07T10:34:31;16.50;57.80
76139;DHT22;65138;50.946;7.074;2022-12-07T10:42:22;16.50;57.80
76139;DHT22;65138;50.946;7.074;2022-12-07T10:44:50;16.50;58.40
76139;DHT22;65138;50.946;7.074;2022-12-07T10:47:51;16.50;57.70
76139;DHT22;65138;50.946;7.074;2022-12-07T10:50:49;16.50;58.30
76139;DHT22;65138;50.946;7.074;2022-12-07T11:05:03;16.60;59.20
76139;DHT22;65138;50.946;7.074;2022-12-07T11:13:25;16.70;59.90
76139;DHT22;65138;50.946;7.074;2022-12-07T11:16:16;16.70;60.30
76139;DHT22;65138;50.946;7.074;2022-12-07T11:21:48;16.70;60.50
76139;DHT22;65138;50.946;7.074;2022-12-07T11:24:23;16.80;60.70
76139;DHT22;65138;50.946;7.074;2022-12-07T11:38:18;16.90;61.50
76139;DHT22;65138;50.946;7.074;2022-12-07T11:40:48;17.00;60.40
76139;DHT22;65138;50.946;7.074;2022-12-07T11:45:46;16.90;60.30
76139;DHT22;65138;50.946;7.074;2022-12-07T11:48:31;16.80;59.90
76139;DHT22;65138;50.946;7.074;2022-12-07T11:51:01;16.90;59.50
76139;DHT22;65138;50.946;7.074;2022-12-07T11:56:09;17.00;59.10
76139;DHT22;65138;50.946;7.074;2022-12-07T11:58:42;17.10;59.00
76139;DHT22;65138;50.946;7.074;2022-12-07T12:03:49;17.30;59.00
76139;DHT22;65138;50.946;7.074;2022-12-07T12:06:16;17.40;59.10
76139;DHT22;65138;50.946;7.074;2022-12-07T12:09:03;17.80;58.70
76139;DHT22;65138;50.946;7.074;2022-12-07T12:23:13;17.50;58.80
76139;DHT22;65138;50.946;7.074;2022-12-07T12:25:45;17.50;58.20
76139;DHT22;65138;50.946;7.074;2022-12-07T12:28:40;17.40;58.10
76139;DHT22;65138;50.946;7.074;2022-12-07T12:31:11;17.40;59.30
76139;DHT22;65138;50.946;7.074;2022-12-07T12:33:46;17.30;61.00
76139;DHT22;65138;50.946;7.074;2022-12-07T12:49:43;17.60;62.40
76139;DHT22;65138;50.946;7.074;2022-12-07T12:55:02;17.60;62.90
76139;DHT22;65138;50.946;7.074;2022-12-07T12:57:37;17.60;62.80
76139;DHT22;65138;50.946;7.074;2022-12-07T13:00:19;17.60;62.40
76139;DHT22;65138;50.946;7.074;2022-12-07T13:02:49;17.50;61.40
76139;DHT22;65138;50.946;7.074;2022-12-07T13:05:22;17.50;60.50
76139;DHT22;65138;50.946;7.074;2022-12-07T13:10:24;17.50;60.80
76139;DHT22;65138;50.946;7.074;2022-12-07T13:15:41;17.50;61.40
76139;DHT22;65138;50.946;7.074;2022-12-07T13:20:46;17.60;62.50
76139;DHT22;65138;50.946;7.074;2022-12-07T13:26:38;17.60;62.50
76139;DHT22;65138;50.946;7.074;2022-12-07T13:29:19;17.60;62.00
76139;DHT22;65138;50.946;7.074;2022-12-07T13:31:56;17.60;62.00
76139;DHT22;65138;50.946;7.074;2022-12-07T13:34:32;17.60;62.00
76139;DHT22;65138;50.946;7.074;2022-12-07T13:37:00;17.50;61.80
76139;DHT22;65138;50.946;7.074;2022-12-07T13:39:27;17.50;61.30
76139;DHT22;65138;50.946;7.074;2022-12-07T13:41:58;17.50;61.00
76139;DHT22;65138;50.946;7.074;2022-12-07T13:44:27;17.50;59.90
76139;DHT22;65138;50.946;7.074;2022-12-07T13:47:20;17.50;60.20
76139;DHT22;65138;50.946;7.074;2022-12-07T13:49:53;17.50;60.10
76139;DHT22;65138;50.946;7.074;2022-12-07T13:52:25;17.50;60.00
76139;DHT22;65138;50.946;7.074;2022-12-07T13:57:30;17.40;59.90
76139;DHT22;65138;50.946;7.074;2022-12-07T13:59:57;17.40;59.90
76139;DHT22;65138;50.946;7.074;2022-12-07T14:02:29;17.40;60.00
76139;DHT22;65138;50.946;7.074;2022-12-07T14:05:14;17.40;60.00
76139;DHT22;65138;50.946;7.074;2022-12-07T14:07:54;17.40;60.50
76139;DHT22;65138;50.946;7.074;2022-12-07T14:10:31;17.30;60.20
76139;DHT22;65138;50.946;7.074;2022-12-07T14:13:00;17.30;59.80
76139;DHT22;65138;50.946;7.074;2022-12-07T14:15:32;17.20;58.80
76139;DHT22;65138;50.946;7.074;2022-12-07T14:17:59;17.20;58.10
76139;DHT22;65138;50.946;7.074;2022-12-07T14:20:40;17.10;57.20
76139;DHT22;65138;50.946;7.074;2022-12-07T14:23:24;17.00;57.30
76139;DHT22;65138;50.946;7.074;2022-12-07T14:25:53;17.00;57.40
76139;DHT22;65138;50.946;7.074;2022-12-07T14:28:33;17.10;58.30
76139;DHT22;65138;50.946;7.074;2022-12-07T14:31:00;17.00;58.50
76139;DHT22;65138;50.946;7.074;2022-12-07T14:33:26;17.00;58.20
76139;DHT22;65138;50.946;7.074;2022-12-07T14:35:58;17.00;58.10
76139;DHT22;65138;50.946;7.074;2022-12-07T14:38:25;17.00;58.60
76139;DHT22;65138;50.946;7.074;2022-12-07T14:40:52;17.00;58.70
76139;DHT22;65138;50.946;7.074;2022-12-07T14:43:19;17.00;58.80
76139;DHT22;65138;50.946;7.074;2022-12-07T14:45:45;17.00;58.40
76139;DHT22;65138;50.946;7.074;2022-12-07T14:48:14;17.00;58.40
76139;DHT22;65138;50.946;7.074;2022-12-07T14:50:47;17.00;58.60
76139;DHT22;65138;50.946;7.074;2022-12-07T14:53:27;17.00;59.00
76139;DHT22;65138;50.946;7.074;2022-12-07T14:55:54;17.10;59.20
76139;DHT22;65138;50.946;7.074;2022-12-07T14:58:19;17.10;59.10
76139;DHT22;65138;50.946;7.074;2022-12-07T15:00:46;17.10;59.30
76139;DHT22;65138;50.946;7.074;2022-12-07T15:03:13;17.00;57.30
76139;DHT22;65138;50.946;7.074;2022-12-07T15:05:40;16.90;57.00
76139;DHT22;65138;50.946;7.074;2022-12-07T15:08:06;16.90;57.10
76139;DHT22;65138;50.946;7.074;2022-12-07T15:10:33;16.90;57.50
76139;DHT22;65138;50.946;7.074;2022-12-07T15:13:01;16.90;57.80
76139;DHT22;65138;50.946;7.074;2022-12-07T15:15:50;16.90;58.20
76139;DHT22;65138;50.946;7.074;2022-12-07T15:18:17;16.90;58.40
76139;DHT22;65138;50.946;7.074;2022-12-07T15:20:43;16.90;58.50
76139;DHT22;65138;50.946;7.074;2022-12-07T15:23:09;16.90;58.80
76139;DHT22;65138;50.946;7.074;2022-12-07T15:25:35;17.00;58.30
76139;DHT22;65138;50.946;7.074;2022-12-07T15:28:01;16.90;57.60
76139;DHT22;65138;50.946;7.074;2022-12-07T15:30:27;16.90;57.30
76139;DHT22;65138;50.946;7.074;2022-12-07T15:32:53;16.90;57.30
76139;DHT22;65138;50.946;7.074;2022-12-07T15:35:19;16.90;57.40
76139;DHT22;65138;50.946;7.074;2022-12-07T15:37:45;16.90;57.40
76139;DHT22;65138;50.946;7.074;2022-12-07T15:40:11;16.90;57.40
76139;DHT22;65138;50.946;7.074;2022-12-07T15:42:37;16.90;57.40
76139;DHT22;65138;50.946;7.074;2022-12-07T15:45:04;16.90;57.40
76139;DHT22;65138;50.946;7.074;2022-12-07T15:47:31;16.80;57.30
76139;DHT22;65138;50.946;7.074;2022-12-07T15:49:58;16.90;57.50
76139;DHT22;65138;50.946;7.074;2022-12-07T15:52:23;16.80;57.40
76139;DHT22;65138;50.946;7.074;2022-12-07T15:54:49;16.80;57.40
76139;DHT22;65138;50.946;7.074;2022-12-07T15:57:18;16.90;57.40
76139;DHT22;65138;50.946;7.074;2022-12-07T15:59:43;16.90;57.40
76139;DHT22;65138;50.946;7.074;2022-12-07T16:02:10;16.80;57.40
76139;DHT22;65138;50.946;7.074;2022-12-07T16:04:36;16.80;57.30
76139;DHT22;65138;50.946;7.074;2022-12-07T16:07:02;16.80;57.40
76139;DHT22;65138;50.946;7.074;2022-12-07T16:09:28;16.80;57.30
76139;DHT22;65138;50.946;7.074;2022-12-07T16:11:54;16.80;57.30
76139;DHT22;65138;50.946;7.074;2022-12-07T16:14:20;16.80;57.30
76139;DHT22;65138;50.946;7.074;2022-12-07T16:16:46;16.80;57.30
76139;DHT22;65138;50.946;7.074;2022-12-07T16:19:12;16.80;57.20
76139;DHT22;65138;50.946;7.074;2022-12-07T16:21:38;16.90;57.20
76139;DHT22;65138;50.946;7.074;2022-12-07T16:24:04;16.90;57.10
76139;DHT22;65138;50.946;7.074;2022-12-07T16:26:30;16.90;57.00
76139;DHT22;65138;50.946;7.074;2022-12-07T16:28:56;16.80;56.90
76139;DHT22;65138;50.946;7.074;2022-12-07T16:31:24;16.80;56.80
76139;DHT22;65138;50.946;7.074;2022-12-07T16:33:53;16.80;56.80
76139;DHT22;65138;50.946;7.074;2022-12-07T16:36:19;16.80;56.90
76139;DHT22;65138;50.946;7.074;2022-12-07T16:38:47;16.80;57.00
76139;DHT22;65138;50.946;7.074;2022-12-07T16:41:14;16.70;57.00
76139;DHT22;65138;50.946;7.074;2022-12-07T16:43:40;16.70;57.00
76139;DHT22;65138;50.946;7.074;2022-12-07T16:46:06;16.70;57.00
76139;DHT22;65138;50.946;7.074;2022-12-07T16:48:35;16.70;57.00
76139;DHT22;65138;50.946;7.074;2022-12-07T16:51:04;16.70;57.10
76139;DHT22;65138;50.946;7.074;2022-12-07T16:53:29;16.70;57.10
76139;DHT22;65138;50.946;7.074;2022-12-07T16:55:55;16.70;57.10
76139;DHT22;65138;50.946;7.074;2022-12-07T16:58:21;16.70;57.10
76139;DHT22;65138;50.946;7.074;2022-12-07T17:00:49;16.70;57.10
76139;DHT22;65138;50.946;7.074;2022-12-07T17:03:15;16.60;57.00
76139;DHT22;65138;50.946;7.074;2022-12-07T17:05:43;16.70;57.10
76139;DHT22;65138;50.946;7.074;2022-12-07T17:08:09;16.60;56.40
76139;DHT22;65138;50.946;7.074;2022-12-07T17:10:38;16.70;57.10
76139;DHT22;65138;50.946;7.074;2022-12-07T17:13:05;16.60;57.00
76139;DHT22;65138;50.946;7.074;2022-12-07T17:15:58;16.70;57.10
76139;DHT22;65138;50.946;7.074;2022-12-07T17:18:24;16.60;57.00
76139;DHT22;65138;50.946;7.074;2022-12-07T17:20:51;16.60;57.10
76139;DHT22;65138;50.946;7.074;2022-12-07T17:23:17;16.60;57.10
76139;DHT22;65138;50.946;7.074;2022-12-07T17:25:42;16.60;57.10
76139;DHT22;65138;50.946;7.074;2022-12-07T17:28:08;16.60;57.10
76139;DHT22;65138;50.946;7.074;2022-12-07T17:30:34;16.60;57.00
76139;DHT22;65138;50.946;7.074;2022-12-07T17:32:59;16.60;57.00
76139;DHT22;65138;50.946;7.074;2022-12-07T17:35:25;16.60;57.00
76139;DHT22;65138;50.946;7.074;2022-12-07T17:37:50;16.60;57.00
76139;DHT22;65138;50.946;7.074;2022-12-07T17:40:16;16.60;56.90
76139;DHT22;65138;50.946;7.074;2022-12-07T17:42:42;16.60;57.00